createdAt,value
2017-07-15T00:00:31.281Z,4.20
2017-07-15T00:02:58.930Z,4.93
2017-07-15T00:05:26.953Z,2.90
2017-07-15T00:07:54.825Z,2.90
2017-07-15T00:10:22.534Z,3.10
2017-07-15T00:12:50.247Z,3.10
2017-07-15T00:15:17.925Z,3.20
2017-07-15T00:17:45.595Z,3.37
2017-07-15T00:20:13.353Z,4.97
2017-07-15T00:22:41.935Z,6.80
2017-07-15T00:25:10.390Z,3.80
2017-07-15T00:27:38.031Z,3.77
2017-07-15T00:30:06.120Z,2.70
2017-07-15T00:32:33.763Z,2.83
2017-07-15T00:35:01.375Z,4.70
2017-07-15T00:37:29.372Z,4.10
2017-07-15T00:39:57.373Z,2.63
2017-07-15T00:42:25.905Z,4.00
2017-07-15T00:44:53.725Z,2.60
2017-07-15T00:47:21.399Z,5.30
2017-07-15T00:49:49.306Z,2.63
2017-07-15T00:52:17.573Z,4.07
2017-07-15T00:54:45.930Z,3.70
2017-07-15T00:57:13.529Z,2.90
2017-07-15T00:59:41.214Z,3.67
2017-07-15T01:02:08.805Z,2.70
2017-07-15T01:04:36.395Z,4.90
2017-07-15T01:07:03.962Z,6.43
2017-07-15T01:09:31.554Z,3.10
2017-07-15T01:11:59.142Z,3.00
2017-07-15T01:14:27.267Z,3.07
2017-07-15T01:16:55.559Z,7.43
2017-07-15T01:19:23.191Z,3.50
2017-07-15T01:21:50.820Z,5.40
2017-07-15T01:24:19.373Z,4.53
2017-07-15T01:26:46.974Z,4.93
2017-07-15T01:29:14.612Z,3.70
2017-07-15T01:31:42.232Z,2.87
2017-07-15T01:34:09.826Z,3.80
2017-07-15T01:36:37.467Z,3.47
2017-07-15T01:39:05.175Z,3.87
2017-07-15T01:41:33.278Z,3.33
2017-07-15T01:44:00.862Z,7.07
2017-07-15T01:46:28.496Z,3.00
2017-07-15T01:48:56.072Z,3.40
2017-07-15T01:51:23.672Z,3.80
2017-07-15T01:53:51.376Z,2.60
2017-07-15T01:56:19.402Z,3.03
2017-07-15T01:58:47.025Z,3.83
2017-07-15T02:01:14.740Z,7.43
2017-07-15T02:03:42.397Z,5.27
2017-07-15T02:06:10.005Z,2.63
2017-07-15T02:08:37.646Z,2.60
2017-07-15T02:11:05.473Z,5.70
2017-07-15T02:13:33.095Z,4.93
2017-07-15T02:16:00.755Z,6.13
2017-07-15T02:18:28.871Z,7.03
2017-07-15T02:20:56.485Z,4.57
2017-07-15T02:23:24.151Z,5.83
2017-07-15T02:25:51.784Z,2.80
2017-07-15T02:28:19.431Z,3.77
2017-07-15T02:30:47.077Z,3.17
2017-07-15T02:33:14.801Z,3.10
2017-07-15T02:35:42.729Z,3.97
2017-07-15T02:38:10.419Z,3.50
2017-07-15T02:40:38.028Z,3.93
2017-07-15T02:43:05.647Z,3.97
2017-07-15T02:45:33.496Z,9.60
2017-07-15T02:48:01.130Z,23.07
2017-07-15T02:50:28.709Z,3.50
2017-07-15T02:52:56.331Z,2.83
2017-07-15T02:55:24.611Z,3.63
2017-07-15T02:57:52.399Z,2.80
2017-07-15T03:00:20.157Z,3.00
2017-07-15T03:02:47.915Z,2.77
2017-07-15T03:05:15.556Z,4.63
2017-07-15T03:07:43.241Z,5.30
2017-07-15T03:10:10.847Z,3.83
2017-07-15T03:12:38.492Z,3.00
2017-07-15T03:15:06.131Z,9.63
2017-07-15T03:17:33.829Z,5.30
2017-07-15T03:20:01.589Z,5.20
2017-07-15T03:22:29.238Z,5.50
2017-07-15T03:24:57.430Z,4.90
2017-07-15T03:27:35.914Z,4.77
2017-07-15T03:30:07.248Z,2.93
2017-07-15T03:32:35.254Z,5.53
2017-07-15T03:35:02.957Z,4.87
2017-07-15T03:37:30.575Z,13.40
2017-07-15T03:39:58.166Z,5.03
2017-07-15T03:42:25.819Z,4.87
2017-07-15T03:44:54.364Z,12.70
2017-07-15T03:47:21.942Z,8.30
2017-07-15T03:49:49.720Z,6.20
2017-07-15T03:52:17.379Z,6.20
2017-07-15T03:54:44.975Z,6.53
2017-07-15T03:57:12.739Z,4.23
2017-07-15T03:59:40.394Z,5.10
2017-07-15T04:02:08.049Z,4.23
2017-07-15T04:04:35.675Z,3.53
2017-07-15T04:07:03.280Z,3.73
2017-07-15T04:09:30.866Z,3.47
2017-07-15T04:11:58.432Z,3.60
2017-07-15T04:14:26.790Z,6.07
2017-07-15T04:16:55.397Z,4.70
2017-07-15T04:19:22.977Z,3.83
2017-07-15T04:21:50.616Z,4.30
2017-07-15T04:24:18.241Z,4.33
2017-07-15T04:26:45.977Z,8.30
2017-07-15T04:29:13.565Z,3.57
2017-07-15T04:31:41.174Z,4.87
2017-07-15T04:34:09.666Z,4.20
2017-07-15T04:36:37.244Z,4.60
2017-07-15T04:39:04.874Z,3.60
2017-07-15T04:41:32.509Z,5.77
2017-07-15T04:44:00.101Z,6.17
2017-07-15T04:46:27.827Z,3.10
2017-07-15T04:48:56.444Z,2.90
2017-07-15T04:51:24.020Z,5.50
2017-07-15T04:53:52.631Z,4.93
2017-07-15T04:56:20.306Z,3.30
2017-07-15T04:58:47.889Z,5.10
2017-07-15T05:01:15.474Z,10.87
2017-07-15T05:03:44.290Z,3.77
2017-07-15T05:06:12.782Z,5.83
2017-07-15T05:08:40.505Z,5.47
2017-07-15T05:11:08.382Z,3.20
2017-07-15T05:13:36.162Z,5.53
2017-07-15T05:16:03.847Z,4.50
2017-07-15T05:18:31.498Z,2.93
2017-07-15T05:20:59.177Z,3.00
2017-07-15T05:23:27.045Z,4.23
2017-07-15T05:25:54.711Z,5.10
2017-07-15T05:28:22.394Z,3.60
2017-07-15T05:30:50.015Z,4.20
2017-07-15T05:33:18.444Z,3.10
2017-07-15T05:35:46.061Z,3.07
2017-07-15T05:38:13.745Z,6.03
2017-07-15T05:40:41.378Z,3.83
2017-07-15T05:43:09.023Z,2.87
2017-07-15T05:45:36.844Z,6.07
2017-07-15T05:48:04.474Z,3.63
2017-07-15T05:50:32.276Z,4.80
2017-07-15T05:52:59.905Z,3.93
2017-07-15T05:55:27.544Z,3.50
2017-07-15T05:57:55.218Z,4.30
2017-07-15T06:00:23.006Z,3.10
2017-07-15T06:02:50.646Z,9.60
2017-07-15T06:05:18.335Z,8.60
2017-07-15T06:07:46.018Z,7.17
2017-07-15T06:10:13.602Z,4.80
2017-07-15T06:12:41.196Z,3.57
2017-07-15T06:15:08.938Z,3.67
2017-07-15T06:17:36.619Z,4.30
2017-07-15T06:20:04.653Z,3.30
2017-07-15T06:22:32.253Z,3.27
2017-07-15T06:25:00.432Z,2.97
2017-07-15T06:27:28.076Z,3.70
2017-07-15T06:29:56.736Z,3.03
2017-07-15T06:32:24.391Z,6.53
2017-07-15T06:34:51.992Z,6.10
2017-07-15T06:37:19.592Z,2.80
2017-07-15T06:39:47.378Z,3.27
2017-07-15T06:42:14.956Z,4.57
2017-07-15T06:44:42.656Z,2.97
2017-07-15T06:47:10.290Z,2.73
2017-07-15T06:49:37.882Z,4.23
2017-07-15T06:52:05.496Z,4.17
2017-07-15T06:54:34.031Z,3.10
2017-07-15T06:57:01.623Z,2.50
2017-07-15T06:59:29.163Z,3.40
2017-07-15T07:01:56.845Z,3.50
2017-07-15T07:04:24.592Z,2.57
2017-07-15T07:06:53.565Z,4.37
2017-07-15T07:09:21.189Z,2.47
2017-07-15T07:11:48.942Z,4.43
2017-07-15T07:14:17.055Z,2.87
2017-07-15T07:16:45.637Z,2.87
2017-07-15T07:19:13.233Z,3.00
2017-07-15T07:21:40.791Z,2.97
2017-07-15T07:24:08.718Z,4.23
2017-07-15T07:26:36.299Z,2.33
2017-07-15T07:29:04.086Z,2.10
2017-07-15T07:31:31.710Z,3.53
2017-07-15T07:33:59.567Z,4.03
2017-07-15T07:36:27.330Z,3.20
2017-07-15T07:38:54.934Z,3.97
2017-07-15T07:41:22.477Z,2.00
2017-07-15T07:44:06.927Z,5.17
2017-07-15T07:46:40.728Z,2.37
2017-07-15T07:49:08.425Z,3.13
2017-07-15T07:51:36.227Z,3.13
2017-07-15T07:54:04.322Z,6.60
2017-07-15T07:56:31.886Z,9.57
2017-07-15T07:58:59.460Z,12.37
2017-07-15T08:01:27.162Z,23.20
2017-07-15T08:03:54.743Z,21.90
2017-07-15T08:06:22.526Z,17.07
2017-07-15T08:08:50.119Z,12.93
2017-07-15T08:11:17.709Z,11.50
2017-07-15T08:13:46.092Z,11.00
2017-07-15T08:16:13.669Z,10.50
2017-07-15T08:18:41.427Z,12.20
2017-07-15T08:21:09.297Z,13.30
2017-07-15T08:23:36.912Z,13.77
2017-07-15T08:26:04.511Z,22.70
2017-07-15T08:28:32.152Z,14.23
2017-07-15T08:30:59.836Z,21.47
2017-07-15T08:33:27.393Z,23.53
2017-07-15T08:35:55.001Z,21.00
2017-07-15T08:38:22.593Z,19.43
2017-07-15T08:40:50.207Z,15.53
2017-07-15T08:43:19.145Z,14.20
2017-07-15T08:45:46.759Z,25.97
2017-07-15T08:48:14.321Z,27.67
2017-07-15T08:50:42.665Z,5.57
2017-07-15T08:53:10.291Z,8.70
2017-07-15T08:55:37.849Z,10.20
2017-07-15T08:58:05.392Z,20.73
2017-07-15T09:00:33.009Z,19.20
2017-07-15T09:03:00.626Z,29.47
2017-07-15T09:05:28.217Z,18.73
2017-07-15T09:07:55.831Z,7.50
2017-07-15T09:10:23.424Z,14.13
2017-07-15T09:12:51.240Z,5.60
2017-07-15T09:15:18.838Z,4.23
2017-07-15T09:17:46.422Z,4.33
2017-07-15T09:20:13.965Z,12.83
2017-07-15T09:22:41.533Z,4.93
2017-07-15T09:25:09.086Z,7.03
2017-07-15T09:27:36.990Z,6.17
2017-07-15T09:30:08.395Z,6.27
2017-07-15T09:32:35.949Z,5.63
2017-07-15T09:35:03.517Z,3.80
2017-07-15T09:37:31.131Z,7.73
2017-07-15T09:39:58.724Z,6.87
2017-07-15T09:42:26.282Z,4.60
2017-07-15T09:44:53.869Z,5.17
2017-07-15T09:47:21.970Z,21.90
2017-07-15T09:49:49.615Z,10.90
2017-07-15T09:52:17.584Z,13.80
2017-07-15T09:54:45.120Z,9.63
2017-07-15T09:57:12.686Z,8.30
2017-07-15T09:59:40.476Z,9.07
2017-07-15T10:02:08.615Z,14.70
2017-07-15T10:04:36.211Z,18.70
2017-07-15T10:07:03.847Z,15.57
2017-07-15T10:09:31.476Z,7.60
2017-07-15T10:11:59.037Z,11.40
2017-07-15T10:14:26.658Z,12.80
2017-07-15T10:16:55.621Z,14.73
2017-07-15T10:19:23.189Z,8.13
2017-07-15T10:21:50.747Z,6.27
2017-07-15T10:24:18.498Z,7.90
2017-07-15T10:26:46.111Z,4.73
2017-07-15T10:29:13.949Z,4.00
2017-07-15T10:31:41.509Z,4.97
2017-07-15T10:34:09.122Z,6.93
2017-07-15T10:36:36.747Z,7.77
2017-07-15T10:39:04.379Z,5.10
2017-07-15T10:41:32.008Z,7.43
2017-07-15T10:43:59.605Z,5.13
2017-07-15T10:46:27.238Z,6.17
2017-07-15T10:48:55.986Z,5.67
2017-07-15T10:51:23.812Z,6.00
2017-07-15T10:53:51.434Z,5.10
2017-07-15T10:56:18.954Z,3.83
2017-07-15T10:58:47.205Z,4.23
2017-07-15T11:01:15.135Z,7.33
2017-07-15T11:03:43.175Z,4.20
2017-07-15T11:06:11.333Z,6.47
2017-07-15T11:08:39.718Z,3.80
2017-07-15T11:11:07.245Z,3.47
2017-07-15T11:13:34.859Z,5.03
2017-07-15T11:16:02.456Z,4.20
2017-07-15T11:18:30.079Z,9.00
2017-07-15T11:20:57.711Z,4.60
2017-07-15T11:23:25.295Z,3.50
2017-07-15T11:25:52.903Z,7.97
2017-07-15T11:28:20.450Z,5.00
2017-07-15T11:30:48.042Z,6.60
2017-07-15T11:33:19.202Z,4.20
2017-07-15T11:35:49.305Z,4.60
2017-07-15T11:38:19.747Z,6.50
2017-07-15T11:40:49.002Z,7.47
2017-07-15T11:43:18.890Z,4.13
2017-07-15T11:45:47.907Z,6.33
2017-07-15T11:48:16.316Z,6.53
2017-07-15T11:50:43.915Z,6.83
2017-07-15T11:53:12.805Z,5.90
2017-07-15T11:55:40.422Z,6.90
2017-07-15T11:58:08.086Z,5.80
2017-07-15T12:00:35.724Z,5.67
2017-07-15T12:03:03.330Z,4.70
2017-07-15T12:05:30.920Z,5.07
2017-07-15T12:07:58.514Z,6.00
2017-07-15T12:10:26.133Z,4.83
2017-07-15T12:12:53.718Z,6.00
2017-07-15T12:15:21.535Z,5.13
2017-07-15T12:17:49.078Z,7.00
2017-07-15T12:20:16.876Z,5.20
2017-07-15T12:22:44.653Z,8.50
2017-07-15T12:25:12.536Z,6.03
2017-07-15T12:27:40.110Z,5.13
2017-07-15T12:30:07.804Z,6.17
2017-07-15T12:32:35.337Z,8.20
2017-07-15T12:35:02.958Z,7.47
2017-07-15T12:37:31.374Z,5.00
2017-07-15T12:39:58.929Z,7.17
2017-07-15T12:42:26.746Z,5.23
2017-07-15T12:44:54.322Z,5.33
2017-07-15T12:47:21.898Z,8.10
2017-07-15T12:49:49.447Z,10.50
2017-07-15T12:52:17.027Z,5.03
2017-07-15T12:54:44.610Z,5.77
2017-07-15T12:57:12.155Z,5.50
2017-07-15T12:59:39.818Z,11.67
2017-07-15T13:02:07.700Z,6.07
2017-07-15T13:04:35.442Z,10.30
2017-07-15T13:07:02.998Z,6.17
2017-07-15T13:09:31.447Z,7.27
2017-07-15T13:11:58.997Z,12.73
2017-07-15T13:14:26.653Z,11.00
2017-07-15T13:16:54.267Z,10.33
2017-07-15T13:19:21.883Z,6.67
2017-07-15T13:21:49.707Z,8.47
2017-07-15T13:24:17.314Z,7.90
2017-07-15T13:26:44.911Z,6.80
2017-07-15T13:29:12.513Z,9.87
2017-07-15T13:31:40.214Z,9.70
2017-07-15T13:34:07.795Z,6.33
2017-07-15T13:36:35.378Z,12.30
2017-07-15T13:39:03.003Z,19.50
2017-07-15T13:41:30.586Z,19.10
2017-07-15T13:43:58.206Z,10.40
2017-07-15T13:46:25.798Z,12.30
2017-07-15T13:48:53.377Z,6.93
2017-07-15T13:51:23.534Z,9.90
2017-07-15T13:53:52.744Z,11.70
2017-07-15T13:56:20.637Z,9.10
2017-07-15T13:58:48.173Z,11.97
2017-07-15T14:01:16.007Z,9.90
2017-07-15T14:03:43.610Z,11.40
2017-07-15T14:06:11.210Z,12.63
2017-07-15T14:08:38.837Z,10.80
2017-07-15T14:11:06.617Z,12.00
2017-07-15T14:13:34.217Z,8.97
2017-07-15T14:16:01.817Z,8.33
2017-07-15T14:18:29.346Z,8.83
2017-07-15T14:20:56.943Z,7.93
2017-07-15T14:23:27.340Z,8.73
2017-07-15T14:25:55.114Z,10.60
2017-07-15T14:28:22.756Z,10.00
2017-07-15T14:30:50.342Z,10.40
2017-07-15T14:33:18.548Z,13.47
2017-07-15T14:35:46.197Z,9.20
2017-07-15T14:38:13.832Z,9.43
2017-07-15T14:40:41.617Z,13.50
2017-07-15T14:43:09.174Z,9.20
2017-07-15T14:45:37.020Z,9.83
2017-07-15T14:48:04.655Z,11.43
2017-07-15T14:50:32.241Z,11.80
2017-07-15T14:52:59.833Z,9.50
2017-07-15T14:55:27.585Z,12.13
2017-07-15T14:57:55.171Z,14.80
2017-07-15T15:00:22.844Z,9.17
2017-07-15T15:02:51.001Z,10.83
2017-07-15T15:05:18.581Z,8.60
2017-07-15T15:07:47.054Z,10.27
2017-07-15T15:10:14.649Z,8.10
2017-07-15T15:12:42.272Z,10.27
2017-07-15T15:15:09.880Z,12.77
2017-07-15T15:17:37.435Z,10.07
2017-07-15T15:20:04.978Z,12.20
2017-07-15T15:22:32.562Z,11.90
2017-07-15T15:25:00.467Z,11.93
2017-07-15T15:27:28.562Z,12.07
2017-07-15T15:29:56.216Z,13.37
2017-07-15T15:32:23.846Z,9.63
2017-07-15T15:34:51.453Z,14.17
2017-07-15T15:37:19.219Z,9.20
2017-07-15T15:39:46.845Z,11.97
2017-07-15T15:42:16.613Z,14.40
2017-07-15T15:44:44.210Z,9.20
2017-07-15T15:47:12.056Z,11.30
2017-07-15T15:49:39.590Z,10.87
2017-07-15T15:52:07.155Z,10.33
2017-07-15T15:54:34.741Z,11.03
2017-07-15T15:57:02.298Z,12.63
2017-07-15T15:59:29.879Z,18.53
2017-07-15T16:01:57.463Z,9.23
2017-07-15T16:04:25.095Z,10.60
2017-07-15T16:06:52.643Z,23.33
2017-07-15T16:09:20.220Z,13.27
2017-07-15T16:11:47.990Z,10.43
2017-07-15T16:14:15.737Z,16.13
2017-07-15T16:16:43.532Z,10.93
2017-07-15T16:19:11.113Z,10.87
2017-07-15T16:21:38.747Z,19.07
2017-07-15T16:24:06.376Z,9.83
2017-07-15T16:26:33.929Z,12.57
2017-07-15T16:29:01.679Z,9.30
2017-07-15T16:31:29.292Z,8.43
2017-07-15T16:33:56.836Z,10.77
2017-07-15T16:36:24.444Z,10.27
2017-07-15T16:38:52.029Z,10.40
2017-07-15T16:41:23.026Z,13.27
2017-07-15T16:43:51.056Z,11.63
2017-07-15T16:46:24.638Z,10.43
2017-07-15T16:48:54.906Z,10.20
2017-07-15T16:51:22.759Z,10.10
2017-07-15T16:53:50.412Z,11.00
2017-07-15T16:56:18.000Z,10.00
2017-07-15T16:58:45.691Z,9.23
2017-07-15T17:01:13.418Z,13.57
2017-07-15T17:03:42.197Z,10.23
2017-07-15T17:06:10.027Z,11.10
2017-07-15T17:08:37.638Z,11.10
2017-07-15T17:11:05.219Z,12.73
2017-07-15T17:13:33.002Z,11.87
2017-07-15T17:18:37.112Z,10.83
2017-07-15T17:21:04.848Z,15.40
2017-07-15T17:23:32.592Z,11.50
2017-07-15T17:26:00.259Z,15.43
2017-07-15T17:28:27.875Z,10.70
2017-07-15T17:30:55.559Z,13.03
2017-07-15T17:33:23.149Z,11.23
2017-07-15T17:35:50.787Z,10.67
2017-07-15T17:38:18.358Z,11.27
2017-07-15T17:40:46.489Z,22.63
2017-07-15T17:43:14.757Z,14.27
2017-07-15T17:45:42.348Z,12.40
2017-07-15T17:48:10.144Z,15.67
2017-07-15T17:50:37.749Z,15.37
2017-07-15T17:53:05.431Z,15.13
2017-07-15T17:55:33.029Z,17.63
2017-07-15T17:58:00.910Z,25.40
2017-07-15T18:00:28.759Z,24.53
2017-07-15T18:02:56.322Z,22.40
2017-07-15T18:05:23.889Z,18.90
2017-07-15T18:07:51.537Z,17.90
2017-07-15T18:10:19.121Z,20.00
2017-07-15T18:12:46.755Z,21.53
2017-07-15T18:15:14.370Z,17.00
2017-07-15T18:17:41.961Z,16.90
2017-07-15T18:20:09.784Z,19.03
2017-07-15T18:22:37.342Z,16.73
2017-07-15T18:25:04.980Z,16.03
2017-07-15T18:27:32.814Z,15.73
2017-07-15T18:30:00.893Z,14.77
2017-07-15T18:32:28.478Z,16.67
2017-07-15T18:34:56.049Z,14.57
2017-07-15T18:37:23.634Z,20.10
2017-07-15T18:39:51.233Z,18.10
2017-07-15T18:42:18.800Z,14.30
2017-07-15T18:44:47.337Z,14.80
2017-07-15T18:47:14.956Z,17.00
2017-07-15T18:49:42.497Z,13.90
2017-07-15T18:52:10.596Z,16.00
2017-07-15T18:54:38.416Z,24.60
2017-07-15T18:57:06.003Z,23.83
2017-07-15T18:59:33.666Z,15.97
2017-07-15T19:02:01.319Z,16.80
2017-07-15T19:04:28.903Z,15.30
2017-07-15T19:06:56.513Z,13.77
2017-07-15T19:09:24.152Z,15.50
2017-07-15T19:11:51.742Z,14.77
2017-07-15T19:14:19.389Z,14.50
2017-07-15T19:16:47.841Z,15.07
2017-07-15T19:19:15.652Z,14.17
2017-07-15T19:21:43.313Z,15.03
2017-07-15T19:24:11.034Z,15.50
2017-07-15T19:26:38.675Z,19.33
2017-07-15T19:29:07.545Z,18.40
2017-07-15T19:31:35.252Z,16.10
2017-07-15T19:34:03.163Z,13.77
2017-07-15T19:36:32.198Z,16.80
2017-07-15T19:38:59.824Z,16.40
2017-07-15T19:41:28.367Z,14.30
2017-07-15T19:43:57.796Z,14.63
2017-07-15T19:46:25.562Z,12.63
2017-07-15T19:49:06.580Z,13.30
2017-07-15T19:51:34.243Z,12.93
2017-07-15T19:54:02.100Z,14.80
2017-07-15T19:56:29.712Z,12.30
2017-07-15T19:58:57.446Z,11.97
2017-07-15T20:01:25.092Z,12.30
2017-07-15T20:06:30.304Z,13.83
2017-07-15T20:09:01.492Z,12.03
2017-07-15T20:11:29.229Z,11.47
2017-07-15T20:13:56.995Z,10.30
2017-07-15T20:16:24.689Z,12.00
2017-07-15T20:18:52.402Z,10.47
2017-07-15T20:21:20.069Z,12.27
2017-07-15T20:23:48.234Z,9.63
2017-07-15T20:26:15.835Z,12.37
2017-07-15T20:28:43.432Z,9.37
2017-07-15T20:31:11.078Z,9.57
2017-07-15T20:33:38.769Z,10.33
2017-07-15T20:36:12.070Z,10.63
2017-07-15T20:38:39.677Z,9.80
2017-07-15T20:41:07.254Z,8.90
2017-07-15T20:43:34.841Z,9.77
2017-07-15T20:46:02.802Z,9.80
2017-07-15T20:48:30.933Z,13.87
2017-07-15T20:50:58.529Z,9.00
2017-07-15T20:53:41.739Z,8.60
2017-07-15T20:56:09.366Z,11.27
2017-07-15T20:58:36.918Z,9.90
2017-07-15T21:01:04.647Z,8.67
2017-07-15T21:03:32.275Z,12.33
2017-07-15T21:05:59.911Z,7.73
2017-07-15T21:08:28.360Z,10.20
2017-07-15T21:10:55.930Z,9.50
2017-07-15T21:13:23.770Z,7.83
2017-07-15T21:15:51.377Z,15.83
2017-07-15T21:18:18.955Z,8.37
2017-07-15T21:20:46.529Z,8.20
2017-07-15T21:23:14.170Z,9.27
2017-07-15T21:25:41.706Z,12.40
2017-07-15T21:28:09.274Z,7.27
2017-07-15T21:30:36.974Z,7.67
2017-07-15T21:33:04.538Z,7.30
2017-07-15T21:35:32.136Z,8.07
2017-07-15T21:37:59.761Z,9.13
2017-07-15T21:40:32.351Z,7.70
2017-07-15T21:42:59.909Z,7.37
2017-07-15T21:45:27.560Z,7.40
2017-07-15T21:47:55.130Z,7.30
2017-07-15T21:50:22.702Z,7.93
2017-07-15T21:52:50.699Z,7.97
2017-07-15T21:55:18.610Z,6.93
2017-07-15T21:57:47.037Z,8.80
2017-07-15T22:00:14.757Z,7.13
2017-07-15T22:02:42.537Z,6.33
2017-07-15T22:08:29.394Z,7.63
2017-07-15T22:11:05.832Z,6.97
2017-07-15T22:13:36.114Z,7.10
2017-07-15T22:16:03.700Z,11.63
2017-07-15T22:18:31.508Z,7.93
2017-07-15T22:21:00.960Z,9.60
2017-07-15T22:23:28.506Z,8.47
2017-07-15T22:26:19.982Z,7.77
2017-07-15T22:28:47.846Z,8.63
2017-07-15T22:31:15.463Z,9.27
2017-07-15T22:33:43.250Z,7.80
2017-07-15T22:36:11.032Z,12.50
2017-07-15T22:38:38.642Z,8.60
2017-07-15T22:41:06.230Z,10.00
2017-07-15T22:43:34.001Z,8.30
2017-07-15T22:46:01.570Z,8.40
2017-07-15T22:48:29.113Z,9.53
2017-07-15T22:50:56.657Z,8.73
2017-07-15T22:53:24.261Z,11.17
2017-07-15T22:55:51.824Z,9.40
2017-07-15T22:58:20.350Z,9.10
2017-07-15T23:00:48.012Z,8.67
2017-07-15T23:03:15.605Z,9.77
2017-07-15T23:05:43.145Z,9.70
2017-07-15T23:08:10.926Z,9.03
2017-07-15T23:10:38.500Z,8.80
2017-07-15T23:13:06.317Z,7.30
2017-07-15T23:15:33.906Z,7.17
2017-07-15T23:18:01.441Z,9.47
2017-07-15T23:20:29.573Z,8.40
2017-07-15T23:22:57.153Z,6.63
2017-07-15T23:25:24.678Z,8.80
2017-07-15T23:27:52.229Z,7.27
2017-07-15T23:30:19.877Z,7.67
2017-07-15T23:32:47.560Z,6.77
2017-07-15T23:35:15.201Z,7.93
2017-07-15T23:37:42.875Z,7.33
2017-07-15T23:40:10.412Z,8.17
2017-07-15T23:42:38.157Z,8.13
2017-07-15T23:45:06.047Z,7.50
2017-07-15T23:47:33.598Z,9.40
2017-07-15T23:50:01.152Z,7.87
2017-07-15T23:52:28.763Z,6.67
2017-07-15T23:54:56.398Z,7.50
2017-07-15T23:57:23.983Z,7.83
2017-07-15T23:59:51.727Z,8.00
